Time;durP1;ratioP1;P1;durP2;ratioP2;P2;SDS_P1;SDS_P2;PMS_P1;PMS_P2;Temp;Humidity;BMP_temperature;BMP_pressure;BME280_temperature;BME280_humidity;BME280_pressure;Samples;Min_cycle;Max_cycle;Signal;HPM_P1;HPM_P2
2022/08/14 00:00:48;;;;;;;6.88;6.32;;;21.20;99.90;;;;;;5053800;28;20655;-67
2022/08/14 00:03:19;;;;;;;7.15;6.75;;;21.30;99.90;;;;;;5053811;28;20621;-67
2022/08/14 00:05:44;;;;;;;7.13;6.53;;;21.30;99.90;;;;;;5052103;28;20171;-67
2022/08/14 00:08:10;;;;;;;8.10;7.47;;;21.30;99.90;;;;;;5052255;28;20640;-67
2022/08/14 00:10:36;;;;;;;8.90;8.07;;;21.20;99.90;;;;;;5053592;28;20206;-67
2022/08/14 00:13:01;;;;;;;7.60;7.10;;;21.20;99.90;;;;;;5053492;28;20559;-67
2022/08/14 00:15:31;;;;;;;7.50;6.90;;;21.20;99.90;;;;;;5052112;28;20213;-67
2022/08/14 00:17:57;;;;;;;6.70;6.25;;;21.30;99.90;;;;;;5052045;28;20182;-67
2022/08/14 00:20:26;;;;;;;7.15;6.65;;;21.20;99.90;;;;;;5051403;28;20206;-66
2022/08/14 00:22:52;;;;;;;11.70;11.05;;;21.20;99.90;;;;;;5051821;28;20711;-66
2022/08/14 00:25:18;;;;;;;7.35;6.75;;;21.20;99.90;;;;;;5051877;28;20282;-66
2022/08/14 00:27:44;;;;;;;9.68;9.02;;;21.20;99.90;;;;;;5051862;28;20210;-66
2022/08/14 00:30:12;;;;;;;8.63;7.85;;;21.20;99.90;;;;;;5051647;28;20680;-66
2022/08/14 00:32:39;;;;;;;6.15;5.55;;;21.10;99.90;;;;;;5051939;28;20170;-66
2022/08/14 00:35:06;;;;;;;6.38;5.32;;;21.00;99.90;;;;;;5053054;28;20568;-66
2022/08/14 00:37:32;;;;;;;7.72;7.13;;;21.00;99.90;;;;;;5051709;28;20171;-66
2022/08/14 00:39:58;;;;;;;6.75;6.10;;;21.00;99.90;;;;;;5052993;28;20221;-66
2022/08/14 00:42:25;;;;;;;20.17;19.08;;;21.00;99.90;;;;;;5053489;28;20179;-66
2022/08/14 00:44:51;;;;;;;10.43;9.70;;;21.00;99.90;;;;;;5052744;28;20171;-66
2022/08/14 00:47:17;;;;;;;9.27;7.45;;;21.00;99.90;;;;;;5051774;28;20177;-66
2022/08/14 00:49:44;;;;;;;8.50;7.95;;;21.00;99.90;;;;;;5051381;28;20221;-66
2022/08/14 00:52:14;;;;;;;9.57;8.98;;;20.90;99.90;;;;;;5051423;28;20174;-66
2022/08/14 00:54:41;;;;;;;8.57;7.88;;;20.90;99.90;;;;;;5052532;28;20174;-66
2022/08/14 00:57:07;;;;;;;7.72;7.00;;;20.90;99.90;;;;;;5085034;28;20216;-66
2022/08/14 00:59:34;;;;;;;7.57;7.07;;;20.80;99.90;;;;;;5052738;28;20656;-66
2022/08/14 01:02:01;;;;;;;7.90;7.40;;;20.80;99.90;;;;;;5052459;28;20169;-66
2022/08/14 01:04:30;;;;;;;7.55;6.85;;;20.90;99.90;;;;;;5084777;28;20270;-66
2022/08/14 01:06:57;;;;;;;10.15;9.63;;;20.80;99.90;;;;;;5052469;28;20171;-66
2022/08/14 01:09:23;;;;;;;11.68;11.07;;;20.80;99.90;;;;;;5052506;28;20170;-66
2022/08/14 01:11:50;;;;;;;7.53;6.95;;;20.80;99.90;;;;;;5052333;28;20203;-66
2022/08/14 01:14:17;;;;;;;12.90;11.70;;;20.80;99.90;;;;;;5052276;28;20585;-66
2022/08/14 01:16:43;;;;;;;5.97;5.43;;;20.70;99.90;;;;;;5052461;28;20167;-66
2022/08/14 01:21:53;;;;;;;11.02;6.78;;;20.60;99.90;;;;;;5052351;28;20558;-66
2022/08/14 01:24:20;;;;;;;18.63;17.30;;;20.60;99.90;;;;;;5052035;28;20182;-66
2022/08/14 01:26:46;;;;;;;14.93;13.95;;;20.60;99.90;;;;;;5052165;28;20220;-66
2022/08/14 01:29:12;;;;;;;10.80;10.00;;;20.50;99.90;;;;;;5052302;28;20261;-66
2022/08/14 01:31:45;;;;;;;8.60;8.10;;;20.50;99.90;;;;;;5050297;28;20225;-66
2022/08/14 01:34:11;;;;;;;9.73;9.02;;;20.50;99.90;;;;;;5050311;28;20171;-66
2022/08/14 01:36:38;;;;;;;8.38;7.78;;;20.50;99.90;;;;;;5052040;28;20174;-66
2022/08/14 01:39:09;;;;;;;9.70;9.10;;;20.40;99.90;;;;;;5050521;28;20547;-66
2022/08/14 01:41:35;;;;;;;8.07;7.38;;;20.40;99.90;;;;;;5050740;28;20615;-66
2022/08/14 01:44:04;;;;;;;7.55;7.05;;;20.30;99.90;;;;;;5050122;28;20266;-66
2022/08/14 01:46:35;;;;;;;6.78;6.15;;;20.20;99.90;;;;;;5049776;28;20182;-66
2022/08/14 01:49:03;;;;;;;7.32;6.72;;;20.20;99.90;;;;;;5054418;28;20187;-66
2022/08/14 01:51:29;;;;;;;8.25;7.60;;;20.20;99.90;;;;;;5071507;28;20202;-66
2022/08/14 01:53:59;;;;;;;8.95;5.57;;;20.10;99.90;;;;;;5052131;28;20171;-66
2022/08/14 01:56:35;;;;;;;10.80;8.57;;;20.10;99.90;;;;;;5050995;28;20202;-66
2022/08/14 01:59:02;;;;;;;9.60;8.90;;;20.00;99.90;;;;;;5050344;28;20198;-66
2022/08/14 02:01:28;;;;;;;9.07;7.53;;;20.00;99.90;;;;;;5049505;28;20203;-66
2022/08/14 02:03:53;;;;;;;8.40;7.70;;;19.90;99.90;;;;;;5049702;28;20184;-66
2022/08/14 02:06:20;;;;;;;9.07;8.48;;;19.80;99.90;;;;;;5050160;28;20174;-66
2022/08/14 02:08:46;;;;;;;7.78;7.03;;;19.80;99.90;;;;;;5050191;28;20652;-66
2022/08/14 02:11:21;;;;;;;7.82;6.90;;;19.70;99.90;;;;;;5049973;28;20229;-66
2022/08/14 02:13:50;;;;;;;8.77;7.95;;;19.70;99.90;;;;;;5049831;28;20274;-66
2022/08/14 02:16:18;;;;;;;7.60;7.05;;;19.70;99.90;;;;;;5051539;28;20167;-66
2022/08/14 02:18:45;;;;;;;7.10;6.60;;;19.70;99.90;;;;;;5051448;28;20182;-66
2022/08/14 02:21:13;;;;;;;8.43;7.82;;;19.70;99.90;;;;;;5050026;28;20195;-66
2022/08/14 02:23:39;;;;;;;9.27;8.52;;;19.80;99.90;;;;;;5051049;28;20171;-66
2022/08/14 02:26:22;;;;;;;9.70;8.95;;;19.80;99.90;;;;;;5051397;28;20178;-66
2022/08/14 02:28:51;;;;;;;9.75;9.05;;;19.90;99.90;;;;;;5051538;28;20365;-66
2022/08/14 02:31:17;;;;;;;12.20;11.30;;;20.00;99.90;;;;;;5049871;28;20210;-66
2022/08/14 02:33:44;;;;;;;11.07;10.27;;;20.00;99.90;;;;;;5049597;28;20213;-66
2022/08/14 02:36:11;;;;;;;14.80;13.93;;;20.00;99.90;;;;;;5051211;28;20167;-66
2022/08/14 02:38:37;;;;;;;12.95;12.10;;;20.00;99.90;;;;;;5051301;28;20561;-66
2022/08/14 02:41:07;;;;;;;14.32;13.52;;;20.10;99.90;;;;;;5050887;28;20648;-66
2022/08/14 02:43:35;;;;;;;14.02;12.85;;;20.10;99.90;;;;;;5049792;28;20234;-66
2022/08/14 02:46:02;;;;;;;9.82;9.13;;;20.10;99.90;;;;;;5055144;28;20174;-66
2022/08/14 02:48:30;;;;;;;10.25;9.45;;;20.10;99.90;;;;;;5053933;28;20269;-66
2022/08/14 02:50:57;;;;;;;10.63;9.82;;;20.10;99.90;;;;;;5054966;28;20206;-66
2022/08/14 02:53:22;;;;;;;10.77;9.32;;;20.10;99.90;;;;;;5053779;28;20267;-66
2022/08/14 02:55:48;;;;;;;9.80;9.10;;;20.10;99.90;;;;;;5054778;28;20213;-66
2022/08/14 02:58:14;;;;;;;10.23;9.52;;;20.10;99.90;;;;;;5052356;28;20171;-66
2022/08/14 03:00:40;;;;;;;10.48;9.75;;;20.10;99.90;;;;;;5054862;28;20198;-66
2022/08/14 03:03:06;;;;;;;9.55;8.80;;;20.10;99.90;;;;;;5053449;28;20273;-66
2022/08/14 03:05:31;;;;;;;8.48;7.97;;;20.10;99.90;;;;;;5053378;28;20202;-66
2022/08/14 03:08:12;;;;;;;9.90;9.27;;;20.10;99.90;;;;;;5054585;28;20183;-66
2022/08/14 03:10:39;;;;;;;10.73;9.90;;;20.00;99.90;;;;;;5054558;28;20210;-66
2022/08/14 03:13:05;;;;;;;8.57;7.93;;;20.00;99.90;;;;;;5054676;28;20166;-66
2022/08/14 03:15:38;;;;;;;8.73;8.18;;;20.00;99.90;;;;;;5053279;28;20175;-66
2022/08/14 03:18:08;;;;;;;8.45;7.75;;;20.00;99.90;;;;;;5053369;28;20194;-66
2022/08/14 03:20:34;;;;;;;7.88;7.28;;;19.90;99.90;;;;;;5053441;28;20230;-66
2022/08/14 03:23:00;;;;;;;8.57;7.72;;;19.80;99.90;;;;;;5054733;28;20221;-66
2022/08/14 03:25:30;;;;;;;8.10;7.53;;;19.80;99.90;;;;;;5054414;28;20182;-66
2022/08/14 03:27:55;;;;;;;7.20;6.60;;;19.70;99.90;;;;;;5054269;28;20185;-66
2022/08/14 03:30:22;;;;;;;7.50;7.00;;;19.70;99.90;;;;;;5054222;28;20747;-66
2022/08/14 03:32:47;;;;;;;7.65;7.00;;;19.70;99.90;;;;;;5054363;28;20364;-66
2022/08/14 03:35:13;;;;;;;7.57;6.88;;;19.70;99.90;;;;;;5054012;28;20258;-66
2022/08/14 03:37:39;;;;;;;8.07;7.32;;;19.70;99.90;;;;;;5052901;28;20209;-66
2022/08/14 03:40:06;;;;;;;7.45;6.85;;;19.70;99.90;;;;;;5052487;28;20221;-66
2022/08/14 03:42:32;;;;;;;7.72;7.13;;;19.60;99.90;;;;;;5052793;28;20258;-66
2022/08/14 03:44:59;;;;;;;9.05;8.35;;;19.50;99.90;;;;;;5052542;28;20672;-66
2022/08/14 03:47:24;;;;;;;10.73;8.45;;;19.50;99.90;;;;;;5054227;28;20174;-66
2022/08/14 03:49:50;;;;;;;8.00;7.50;;;19.40;99.90;;;;;;5052489;28;20668;-66
2022/08/14 03:52:17;;;;;;;7.72;7.22;;;19.40;99.90;;;;;;5054275;28;20178;-66
2022/08/14 03:54:43;;;;;;;9.15;8.45;;;19.30;99.90;;;;;;5051822;28;20170;-66
2022/08/14 03:57:09;;;;;;;8.38;7.57;;;19.20;99.90;;;;;;5053015;28;20183;-66
2022/08/14 03:59:35;;;;;;;9.07;8.47;;;19.20;99.90;;;;;;5053884;28;20240;-66
2022/08/14 04:02:02;;;;;;;9.23;8.32;;;19.20;99.90;;;;;;5053578;28;20175;-66
2022/08/14 04:04:29;;;;;;;8.27;7.65;;;19.10;99.90;;;;;;5053613;28;20182;-66
2022/08/14 04:06:55;;;;;;;8.93;8.15;;;19.10;99.90;;;;;;5053644;28;20179;-66
2022/08/14 04:09:21;;;;;;;7.90;7.10;;;19.10;99.90;;;;;;5052291;28;20183;-66
2022/08/14 04:11:46;;;;;;;8.13;7.53;;;19.10;99.90;;;;;;5053460;28;20210;-66
2022/08/14 04:14:13;;;;;;;8.13;7.07;;;19.00;99.90;;;;;;5053223;28;20194;-66
2022/08/14 04:16:41;;;;;;;7.63;7.03;;;19.00;99.90;;;;;;5053621;28;20321;-66
2022/08/14 04:19:08;;;;;;;8.40;7.68;;;19.00;99.90;;;;;;5053713;28;20171;-66
2022/08/14 04:21:34;;;;;;;9.02;8.43;;;19.10;99.90;;;;;;5052115;28;20265;-66
2022/08/14 04:24:01;;;;;;;7.72;7.03;;;19.10;99.90;;;;;;5052845;28;20262;-66
2022/08/14 04:26:28;;;;;;;8.27;7.57;;;19.10;99.90;;;;;;5053476;28;20179;-66
2022/08/14 04:28:55;;;;;;;7.60;7.03;;;19.20;99.90;;;;;;5053276;28;20713;-66
2022/08/14 04:31:22;;;;;;;8.50;7.70;;;19.30;99.90;;;;;;5053141;28;20210;-66
2022/08/14 04:33:48;;;;;;;8.48;7.70;;;19.30;99.90;;;;;;5051555;28;20179;-66
2022/08/14 04:36:14;;;;;;;8.87;8.07;;;19.30;99.90;;;;;;5051829;28;20175;-66
2022/08/14 04:43:34;;;;;;;8.00;7.40;;;19.30;99.90;;;;;;5082797;22;20232;-65
2022/08/14 04:44:19;;;;;;;7.47;6.90;;;19.30;99.90;;;;;;5073192;28;20170;-65
2022/08/14 04:49:30;;;;;;;7.80;7.20;;;19.30;99.90;;;;;;5072575;28;20403;-62
2022/08/14 04:51:56;;;;;;;9.23;8.53;;;19.30;99.90;;;;;;5052673;28;20210;-65
2022/08/14 04:54:25;;;;;;;8.95;8.25;;;19.30;99.90;;;;;;5052785;28;20177;-64
2022/08/14 04:56:51;;;;;;;8.57;7.88;;;19.40;99.90;;;;;;5052935;28;20163;-64
2022/08/14 04:59:17;;;;;;;9.00;8.30;;;19.40;99.90;;;;;;5052893;28;20166;-64
2022/08/14 05:01:43;;;;;;;8.60;7.78;;;19.40;99.90;;;;;;5052720;28;20194;-65
2022/08/14 05:04:11;;;;;;;9.38;8.55;;;19.40;99.90;;;;;;5052352;28;20174;-65
2022/08/14 05:06:37;;;;;;;9.07;7.97;;;19.50;99.90;;;;;;5051869;28;20254;-65
2022/08/14 05:09:04;;;;;;;8.98;8.10;;;19.50;99.90;;;;;;5052643;28;20175;-65
2022/08/14 05:11:32;;;;;;;9.30;8.60;;;19.60;99.90;;;;;;5052420;28;20211;-64
2022/08/14 05:14:00;;;;;;;9.30;8.60;;;19.50;99.90;;;;;;5052133;28;20163;-64
2022/08/14 05:16:28;;;;;;;9.17;8.57;;;19.50;99.90;;;;;;5052533;28;20170;-63
2022/08/14 05:18:54;;;;;;;9.70;9.00;;;19.60;99.90;;;;;;5052455;28;20163;-64
2022/08/14 05:21:20;;;;;;;9.50;8.70;;;19.70;99.90;;;;;;5052550;28;20209;-65
2022/08/14 05:23:46;;;;;;;10.43;9.52;;;19.70;99.90;;;;;;5052284;28;20178;-64
2022/08/14 05:26:16;;;;;;;10.23;9.30;;;19.70;99.90;;;;;;5052211;28;20354;-64
2022/08/14 05:28:44;;;;;;;9.57;8.83;;;19.80;99.90;;;;;;5052263;28;20643;-64
2022/08/14 05:31:12;;;;;;;8.83;8.03;;;19.70;99.90;;;;;;5052196;28;20210;-64
2022/08/14 05:33:39;;;;;;;11.37;8.73;;;19.80;99.90;;;;;;5052268;28;20531;-64
2022/08/14 05:36:10;;;;;;;9.05;8.18;;;19.80;99.90;;;;;;5051947;28;20167;-65
2022/08/14 05:38:44;;;;;;;9.15;8.55;;;19.80;99.90;;;;;;5052205;28;20166;-65
2022/08/14 05:41:14;;;;;;;10.65;9.88;;;19.90;99.90;;;;;;5046214;28;20221;-64
2022/08/14 05:43:40;;;;;;;9.10;8.38;;;19.90;99.90;;;;;;5031881;28;20692;-65
2022/08/14 05:46:10;;;;;;;9.77;8.48;;;20.00;99.90;;;;;;5031837;28;20549;-66
2022/08/14 05:48:35;;;;;;;10.60;8.57;;;20.10;99.90;;;;;;5030835;28;20713;-64
2022/08/14 05:51:01;;;;;;;8.65;7.85;;;20.20;99.90;;;;;;5031190;28;20211;-66
2022/08/14 05:53:27;;;;;;;13.05;10.85;;;20.30;99.90;;;;;;5031075;28;20589;-65
2022/08/14 05:55:54;;;;;;;10.25;9.45;;;20.50;99.90;;;;;;5031280;28;20230;-64
2022/08/14 05:58:20;;;;;;;9.75;9.05;;;20.70;99.90;;;;;;5031383;28;20533;-63
2022/08/14 06:00:47;;;;;;;10.85;9.85;;;20.80;99.90;;;;;;5031462;28;20203;-65
2022/08/14 06:03:15;;;;;;;13.55;12.35;;;21.00;99.90;;;;;;5031853;28;20186;-64
2022/08/14 06:05:42;;;;;;;9.95;9.02;;;21.20;99.90;;;;;;5030169;28;20205;-65
2022/08/14 06:08:20;;;;;;;9.35;8.20;;;21.50;99.90;;;;;;5030277;28;20556;-63
2022/08/14 06:10:46;;;;;;;9.98;9.07;;;21.80;99.90;;;;;;5031364;28;20222;-65
2022/08/14 06:13:13;;;;;;;9.45;7.78;;;22.00;99.90;;;;;;5030230;28;20779;-65
2022/08/14 06:15:40;;;;;;;13.27;8.75;;;22.30;99.90;;;;;;5038905;28;20684;-65
2022/08/14 06:18:06;;;;;;;8.60;7.68;;;22.60;99.90;;;;;;5051078;28;20187;-64
2022/08/14 06:20:31;;;;;;;7.75;7.00;;;23.10;99.90;;;;;;5036032;28;20203;-65
2022/08/14 06:22:58;;;;;;;6.85;6.35;;;23.60;99.90;;;;;;5031116;28;20225;-66
2022/08/14 06:25:24;;;;;;;7.68;6.78;;;24.10;99.90;;;;;;5031271;28;20167;-66
2022/08/14 06:27:49;;;;;;;7.82;7.22;;;24.60;99.90;;;;;;5030921;28;20285;-66
2022/08/14 06:30:20;;;;;;;7.43;6.82;;;25.00;99.90;;;;;;5031348;28;20246;-66
2022/08/14 06:32:46;;;;;;;8.55;7.78;;;25.20;99.90;;;;;;5031153;28;20590;-65
2022/08/14 06:35:13;;;;;;;8.05;7.45;;;25.50;99.90;;;;;;5031072;28;20582;-65
2022/08/14 06:37:57;;;;;;;6.68;6.18;;;25.70;99.90;;;;;;5031148;28;20190;-66
2022/08/14 06:40:35;;;;;;;7.15;6.55;;;26.00;99.90;;;;;;5032267;28;20344;-65
2022/08/14 06:43:06;;;;;;;7.75;7.05;;;26.10;99.90;;;;;;5051061;28;20171;-66
2022/08/14 06:45:35;;;;;;;7.70;6.65;;;26.30;99.90;;;;;;5051017;28;20209;-65
2022/08/14 06:48:02;;;;;;;7.57;6.97;;;26.50;99.90;;;;;;5044599;28;20211;-65
2022/08/14 06:50:30;;;;;;;7.55;6.40;;;26.60;99.90;;;;;;5031114;28;20202;-65
2022/08/14 06:52:57;;;;;;;6.38;5.80;;;26.60;99.90;;;;;;5030795;28;20178;-66
2022/08/14 06:55:23;;;;;;;6.65;6.05;;;26.70;99.90;;;;;;5031625;28;20167;-65
2022/08/14 06:57:50;;;;;;;7.47;6.88;;;26.90;99.90;;;;;;5030591;28;20182;-64
2022/08/14 07:00:22;;;;;;;7.70;7.20;;;27.20;99.90;;;;;;5031622;28;20415;-66
2022/08/14 07:08:28;;;;;;;7.28;6.68;;;27.70;99.90;;;;;;5030847;28;20542;-65
2022/08/14 07:10:59;;;;;;;8.40;7.60;;;28.00;99.90;;;;;;5030782;28;20203;-66
2022/08/14 07:13:25;;;;;;;6.78;6.28;;;27.90;99.90;;;;;;5030528;28;20179;-66
2022/08/14 07:15:53;;;;;;;6.72;6.13;;;27.90;99.90;;;;;;5030820;28;20250;-64
2022/08/14 07:18:20;;;;;;;7.38;6.68;;;28.10;99.90;;;;;;5030537;28;20202;-66
2022/08/14 07:20:46;;;;;;;7.03;6.53;;;28.20;99.90;;;;;;5031216;28;20750;-65
2022/08/14 07:23:12;;;;;;;11.40;10.65;;;28.40;99.90;;;;;;5030565;28;20187;-65
2022/08/14 07:25:40;;;;;;;7.75;6.30;;;28.50;99.90;;;;;;5030698;28;20179;-65
2022/08/14 07:28:17;;;;;;;11.32;10.52;;;28.60;99.90;;;;;;5030272;28;20179;-64
2022/08/14 07:30:44;;;;;;;13.13;12.27;;;28.60;99.90;;;;;;5032743;28;20213;-65
2022/08/14 07:33:11;;;;;;;10.13;9.23;;;28.70;99.90;;;;;;5034137;28;20203;-64
2022/08/14 07:35:38;;;;;;;10.18;9.32;;;28.90;99.90;;;;;;5034369;28;20203;-65
2022/08/14 07:38:05;;;;;;;10.70;9.98;;;29.00;99.90;;;;;;5032826;28;20199;-66
2022/08/14 07:40:30;;;;;;;9.60;8.80;;;29.20;99.90;;;;;;5034264;28;20279;-65
2022/08/14 07:42:56;;;;;;;8.10;7.57;;;29.20;99.90;;;;;;5034221;28;20198;-65
2022/08/14 07:45:22;;;;;;;8.27;7.53;;;29.50;99.90;;;;;;5033907;28;20237;-65
2022/08/14 07:47:48;;;;;;;7.10;6.40;;;29.90;99.90;;;;;;5034305;28;20178;-66
2022/08/14 07:50:16;;;;;;;6.85;6.25;;;30.30;99.90;;;;;;5032622;28;20684;-64
2022/08/14 07:52:43;;;;;;;6.93;6.25;;;30.50;99.90;;;;;;5033837;28;20172;-65
2022/08/14 07:55:11;;;;;;;6.60;6.03;;;30.80;99.90;;;;;;5033986;28;20670;-66
2022/08/14 07:57:39;;;;;;;6.00;5.50;;;30.90;99.90;;;;;;5033037;28;20179;-65
2022/08/14 08:00:10;;;;;;;6.03;5.53;;;31.10;99.90;;;;;;5033632;28;20195;-65
2022/08/14 08:02:38;;;;;;;6.13;5.63;;;31.00;99.90;;;;;;5033603;28;20702;-66
2022/08/14 08:05:05;;;;;;;6.93;6.32;;;31.00;99.90;;;;;;5033406;28;20175;-65
2022/08/14 08:07:31;;;;;;;7.00;6.40;;;31.10;99.90;;;;;;5033621;28;20175;-65
2022/08/14 08:09:58;;;;;;;6.28;5.68;;;31.30;99.90;;;;;;5033384;28;20196;-65
2022/08/14 08:12:25;;;;;;;6.35;5.65;;;31.30;99.90;;;;;;5033706;28;20167;-66
2022/08/14 08:14:51;;;;;;;6.88;6.38;;;31.20;99.90;;;;;;5033371;28;20202;-65
2022/08/14 08:17:21;;;;;;;6.13;5.57;;;31.10;99.90;;;;;;5033208;28;20657;-65
2022/08/14 08:19:47;;;;;;;6.30;5.80;;;31.20;99.90;;;;;;5033520;28;20871;-65
2022/08/14 08:22:13;;;;;;;5.90;5.40;;;31.60;99.90;;;;;;5033109;28;20202;-65
2022/08/14 08:24:39;;;;;;;6.05;5.55;;;31.90;99.90;;;;;;5033248;28;20262;-65
2022/08/14 08:27:19;;;;;;;6.13;5.53;;;32.00;99.90;;;;;;5033071;28;20546;-66
2022/08/14 08:29:45;;;;;;;6.18;5.57;;;32.00;99.90;;;;;;5033530;28;20206;-65
2022/08/14 08:32:10;;;;;;;6.22;5.82;;;32.00;99.90;;;;;;5032779;28;20633;-66
2022/08/14 08:34:44;;;;;;;6.32;5.72;;;32.00;99.90;;;;;;5033167;28;20171;-65
2022/08/14 08:37:10;;;;;;;6.25;5.65;;;32.00;99.90;;;;;;5032757;28;20191;-66
2022/08/14 08:39:47;;;;;;;6.32;5.82;;;32.00;99.90;;;;;;5033065;28;20593;-65
2022/08/14 08:42:23;;;;;;;6.47;5.88;;;31.90;99.90;;;;;;5032665;28;20272;-66
2022/08/14 08:44:57;;;;;;;6.53;5.90;;;32.00;99.90;;;;;;5032879;28;20591;-66
2022/08/14 08:47:23;;;;;;;7.20;6.70;;;32.30;99.90;;;;;;5032739;28;20206;-65
2022/08/14 08:49:49;;;;;;;6.32;5.80;;;32.50;99.90;;;;;;5032839;28;20310;-65
2022/08/14 08:52:15;;;;;;;6.15;5.65;;;32.90;99.90;;;;;;5032695;28;20191;-65
2022/08/14 08:54:41;;;;;;;6.13;5.63;;;33.30;99.90;;;;;;5032584;28;20226;-65
2022/08/14 08:57:11;;;;;;;6.57;6.05;;;33.40;99.90;;;;;;5032447;28;20183;-66
2022/08/14 08:59:37;;;;;;;5.55;5.05;;;33.50;99.90;;;;;;5032795;28;20234;-66
2022/08/14 09:02:06;;;;;;;5.70;5.20;;;33.70;99.90;;;;;;5032352;28;20187;-66
2022/08/14 09:04:40;;;;;;;5.40;5.00;;;33.90;99.90;;;;;;5032412;28;20184;-65
2022/08/14 09:07:07;;;;;;;6.07;5.53;;;34.20;99.90;;;;;;5032281;28;20201;-65
2022/08/14 09:09:33;;;;;;;5.40;5.00;;;34.20;99.90;;;;;;5032652;28;20597;-66
2022/08/14 09:12:01;;;;;;;5.85;5.10;;;34.30;99.90;;;;;;5032068;28;20299;-66
2022/08/14 09:14:29;;;;;;;7.53;7.03;;;34.50;98.90;;;;;;5032259;28;20199;-67
2022/08/14 09:16:56;;;;;;;6.35;5.85;;;34.50;97.80;;;;;;5032079;28;20178;-64
2022/08/14 09:19:22;;;;;;;7.25;6.65;;;34.50;98.60;;;;;;5032453;28;20645;-66
2022/08/14 09:21:48;;;;;;;6.15;5.65;;;34.70;98.90;;;;;;5032045;28;20222;-66
2022/08/14 09:24:14;;;;;;;6.95;6.45;;;35.20;98.80;;;;;;5031996;28;20187;-64
2022/08/14 09:26:43;;;;;;;7.03;6.63;;;35.60;96.70;;;;;;5031956;28;20176;-66
2022/08/14 09:29:09;;;;;;;9.18;8.38;;;35.70;95.60;;;;;;5031603;28;20529;-64
2022/08/14 09:31:38;;;;;;;6.28;5.78;;;35.90;95.40;;;;;;5031826;28;20246;-65
2022/08/14 09:34:19;;;;;;;6.78;6.25;;;36.00;94.70;;;;;;5031218;28;20606;-66
2022/08/14 09:36:45;;;;;;;6.80;6.30;;;36.10;94.10;;;;;;5030763;28;20641;-65
2022/08/14 09:39:50;;;;;;;7.45;6.75;;;36.20;93.60;;;;;;5031696;28;20187;-64
2022/08/14 09:42:15;;;;;;;6.60;5.55;;;36.20;91.40;;;;;;5031793;28;20183;-65
2022/08/14 09:44:53;;;;;;;5.50;5.00;;;36.20;92.80;;;;;;5031296;28;20194;-65
2022/08/14 09:47:20;;;;;;;5.20;4.70;;;36.60;91.80;;;;;;5031806;28;20179;-66
2022/08/14 09:49:46;;;;;;;5.10;4.70;;;36.60;90.10;;;;;;5031772;28;20524;-65
2022/08/14 09:52:14;;;;;;;4.35;3.97;;;36.80;90.60;;;;;;5031822;28;20229;-65
2022/08/14 09:54:43;;;;;;;4.57;4.28;;;37.00;85.90;;;;;;5030002;28;20175;-64
2022/08/14 09:57:25;;;;;;;5.05;4.65;;;37.10;84.50;;;;;;5031939;28;20583;-65
2022/08/14 09:59:51;;;;;;;4.55;4.15;;;37.00;83.20;;;;;;5031562;28;20253;-66
2022/08/14 10:02:30;;;;;;;4.78;4.38;;;37.20;84.00;;;;;;5031398;28;20215;-66
2022/08/14 10:05:03;;;;;;;4.60;4.20;;;37.20;80.10;;;;;;5031402;28;20168;-65
2022/08/14 10:07:30;;;;;;;7.93;4.32;;;37.40;81.10;;;;;;5031720;28;20233;-65
2022/08/14 10:09:56;;;;;;;4.47;4.18;;;37.70;82.80;;;;;;5030153;28;20199;-64
2022/08/14 10:12:22;;;;;;;4.72;3.90;;;37.90;75.80;;;;;;5031430;28;20168;-64
2022/08/14 10:14:47;;;;;;;4.20;3.90;;;38.00;75.40;;;;;;5031380;28;20198;-65
2022/08/14 10:17:25;;;;;;;4.70;4.30;;;37.90;74.30;;;;;;5031470;28;20210;-66
2022/08/14 10:19:51;;;;;;;4.95;4.55;;;37.80;74.70;;;;;;5031674;28;20611;-65
2022/08/14 10:22:28;;;;;;;5.72;3.78;;;37.80;73.60;;;;;;5030117;28;20171;-66
2022/08/14 10:24:55;;;;;;;3.53;3.22;;;38.10;75.20;;;;;;5031508;28;20167;-65
2022/08/14 10:27:22;;;;;;;3.58;3.35;;;38.30;67.90;;;;;;5031514;28;20179;-65
2022/08/14 10:29:51;;;;;;;4.40;3.97;;;38.00;66.80;;;;;;5031579;28;20222;-65
2022/08/14 10:32:17;;;;;;;4.32;3.90;;;37.70;68.50;;;;;;5031357;28;20221;-65
2022/08/14 10:34:46;;;;;;;4.47;3.70;;;37.60;64.80;;;;;;5031223;28;20168;-64
2022/08/14 10:37:15;;;;;;;5.47;4.15;;;37.50;69.40;;;;;;5031207;28;20164;-65
2022/08/14 10:39:43;;;;;;;3.97;3.67;;;37.60;67.10;;;;;;5031216;28;20229;-66
2022/08/14 10:42:11;;;;;;;4.55;4.18;;;37.60;67.30;;;;;;5089195;23;20291;-66
2022/08/14 10:44:39;;;;;;;4.00;3.70;;;37.60;64.70;;;;;;5071033;28;20166;-66
2022/08/14 10:47:09;;;;;;;4.85;4.35;;;37.50;65.30;;;;;;5071204;28;20170;-66
2022/08/14 10:49:48;;;;;;;3.78;3.47;;;37.30;63.90;;;;;;5070111;28;20177;-65
2022/08/14 10:52:23;;;;;;;7.20;3.95;;;37.10;64.50;;;;;;5077506;28;20222;-66
2022/08/14 10:54:50;;;;;;;4.45;4.13;;;37.20;63.00;;;;;;5070826;28;20242;-66
2022/08/14 10:57:20;;;;;;;4.20;3.90;;;37.20;65.00;;;;;;5069694;28;20273;-66
2022/08/14 10:59:50;;;;;;;4.43;4.07;;;37.40;64.50;;;;;;5070050;28;20166;-66
2022/08/14 11:02:28;;;;;;;6.35;3.50;;;37.80;63.00;;;;;;5071009;28;20694;-67
2022/08/14 11:05:13;;;;;;;4.30;4.00;;;38.30;64.00;;;;;;5071227;28;20174;-66
2022/08/14 11:07:42;;;;;;;3.92;3.65;;;39.10;59.90;;;;;;5074673;28;20181;-66
2022/08/14 11:10:12;;;;;;;6.03;3.95;;;39.60;61.20;;;;;;5074645;28;20182;-66
2022/08/14 11:12:45;;;;;;;4.47;3.13;;;39.80;60.10;;;;;;5074837;28;20174;-66
2022/08/14 11:15:11;;;;;;;3.60;3.40;;;40.00;57.50;;;;;;5074524;28;20171;-67
2022/08/14 11:17:37;;;;;;;3.50;3.20;;;39.80;54.90;;;;;;5074330;28;20208;-66
2022/08/14 11:20:07;;;;;;;3.42;3.13;;;39.50;53.10;;;;;;5074568;28;20639;-66
2022/08/14 11:22:33;;;;;;;3.97;3.58;;;39.20;53.70;;;;;;5072977;28;20178;-67
2022/08/14 11:25:05;;;;;;;3.47;3.28;;;38.90;55.10;;;;;;5073082;28;20753;-67
2022/08/14 11:27:32;;;;;;;3.85;3.55;;;39.00;54.50;;;;;;5074614;28;20489;-67
2022/08/14 11:30:05;;;;;;;4.28;3.92;;;39.10;54.30;;;;;;5074002;28;20534;-66
2022/08/14 11:32:31;;;;;;;3.45;3.20;;;39.20;53.80;;;;;;5073379;28;20642;-67
2022/08/14 11:35:04;;;;;;;3.83;3.33;;;39.10;52.20;;;;;;5074185;28;20170;-69
2022/08/14 11:37:32;;;;;;;4.13;3.72;;;39.20;53.60;;;;;;5054569;28;20233;-68
2022/08/14 11:40:01;;;;;;;3.42;3.13;;;39.10;52.00;;;;;;5052583;28;20664;-69
2022/08/14 11:42:28;;;;;;;3.35;3.15;;;38.70;51.50;;;;;;5080012;28;20189;-67
2022/08/14 11:45:02;;;;;;;4.40;3.22;;;38.50;51.70;;;;;;5092778;28;20177;-67
2022/08/14 11:47:31;;;;;;;4.43;3.70;;;38.60;52.90;;;;;;5072655;28;20176;-67
2022/08/14 11:49:58;;;;;;;4.30;4.05;;;39.10;51.00;;;;;;5073587;28;20188;-66
2022/08/14 11:52:33;;;;;;;4.20;3.80;;;39.50;51.10;;;;;;5074158;28;20246;-66
2022/08/14 11:54:59;;;;;;;5.05;3.85;;;39.30;51.00;;;;;;5073406;28;20170;-65
2022/08/14 11:57:25;;;;;;;4.45;4.05;;;39.40;52.40;;;;;;5074041;28;20209;-66
2022/08/14 12:00:07;;;;;;;3.90;3.67;;;39.50;51.10;;;;;;5072226;28;20162;-66
2022/08/14 12:02:33;;;;;;;5.07;3.88;;;39.30;52.00;;;;;;5072644;28;20615;-65
2022/08/14 12:04:58;;;;;;;5.57;3.95;;;39.50;51.40;;;;;;5072850;28;20205;-65
2022/08/14 12:07:24;;;;;;;4.28;3.88;;;39.70;50.70;;;;;;5073653;28;20177;-67
2022/08/14 12:09:56;;;;;;;4.43;4.03;;;39.70;51.30;;;;;;5072016;28;20212;-67
2022/08/14 12:12:26;;;;;;;5.03;4.63;;;39.90;52.40;;;;;;5072329;28;20198;-66
2022/08/14 12:14:59;;;;;;;3.40;3.20;;;40.10;51.60;;;;;;5071630;28;20169;-66
2022/08/14 12:17:32;;;;;;;4.00;3.60;;;40.30;50.20;;;;;;5073220;28;20227;-67
2022/08/14 12:20:02;;;;;;;3.83;3.53;;;40.20;49.20;;;;;;5073019;28;20194;-66
2022/08/14 12:22:43;;;;;;;3.47;3.28;;;40.00;50.00;;;;;;5073500;28;20171;-66
2022/08/14 12:25:12;;;;;;;3.65;3.25;;;39.70;48.40;;;;;;5071302;28;20269;-67
2022/08/14 12:27:43;;;;;;;4.03;3.70;;;39.30;47.30;;;;;;5073443;28;20166;-66
2022/08/14 12:30:12;;;;;;;6.60;3.28;;;39.20;48.40;;;;;;5071326;28;20182;-67
2022/08/14 12:32:47;;;;;;;3.60;3.30;;;39.20;48.10;;;;;;5073368;28;20292;-66
2022/08/14 12:35:13;;;;;;;3.38;3.17;;;39.10;47.70;;;;;;5072381;28;20562;-65
2022/08/14 12:37:50;;;;;;;3.72;3.47;;;39.30;47.00;;;;;;5073148;28;20640;-67
2022/08/14 12:40:17;;;;;;;4.22;3.92;;;39.80;47.90;;;;;;5072609;28;20239;-67
2022/08/14 12:42:43;;;;;;;3.22;3.05;;;40.50;46.40;;;;;;5073364;28;20245;-66
2022/08/14 12:45:11;;;;;;;4.05;3.75;;;40.20;45.60;;;;;;5071081;28;20527;-67
2022/08/14 12:47:39;;;;;;;3.53;3.33;;;39.80;45.30;;;;;;5072961;28;20197;-67
2022/08/14 12:50:05;;;;;;;4.18;3.88;;;39.90;45.10;;;;;;5070986;28;20181;-66
2022/08/14 12:52:43;;;;;;;3.30;3.10;;;40.20;46.20;;;;;;5072817;28;20174;-67
2022/08/14 12:55:14;;;;;;;4.38;4.07;;;40.00;46.00;;;;;;5072141;28;20174;-66
2022/08/14 12:57:45;;;;;;;3.78;3.53;;;39.70;45.60;;;;;;5072467;28;20182;-66
2022/08/14 13:00:16;;;;;;;3.95;3.55;;;39.30;45.80;;;;;;5072328;28;20189;-65
2022/08/14 13:02:43;;;;;;;4.00;3.70;;;39.30;45.70;;;;;;5072825;28;20193;-66
2022/08/14 13:05:11;;;;;;;3.47;3.28;;;39.20;46.10;;;;;;5071989;28;20611;-66